sensor_id;sensor_type;location;lat;lon;timestamp;temperature;humidity
4461;DHT22;2243;48.812;9.232;2023-10-19T00:01:21;11.60;99.90
4461;DHT22;2243;48.812;9.232;2023-10-19T00:03:56;11.60;99.90
4461;DHT22;2243;48.812;9.232;2023-10-19T00:06:27;11.50;99.90
4461;DHT22;2243;48.812;9.232;2023-10-19T00:08:58;11.40;99.90
4461;DHT22;2243;48.812;9.232;2023-10-19T00:11:30;11.50;99.90
4461;DHT22;2243;48.812;9.232;2023-10-19T00:14:01;11.60;99.90
4461;DHT22;2243;48.812;9.232;2023-10-19T00:16:33;11.60;99.90
4461;DHT22;2243;48.812;9.232;2023-10-19T00:19:06;11.60;99.90
4461;DHT22;2243;48.812;9.232;2023-10-19T00:21:37;11.70;99.90
4461;DHT22;2243;48.812;9.232;2023-10-19T00:24:28;11.70;99.90
4461;DHT22;2243;48.812;9.232;2023-10-19T00:27:02;11.60;99.90
4461;DHT22;2243;48.812;9.232;2023-10-19T00:29:47;11.70;99.90
4461;DHT22;2243;48.812;9.232;2023-10-19T00:32:21;11.60;99.90
4461;DHT22;2243;48.812;9.232;2023-10-19T00:34:55;11.70;99.90
4461;DHT22;2243;48.812;9.232;2023-10-19T00:37:27;11.60;99.90
4461;DHT22;2243;48.812;9.232;2023-10-19T00:39:58;11.60;99.90
4461;DHT22;2243;48.812;9.232;2023-10-19T00:42:45;11.70;99.90
4461;DHT22;2243;48.812;9.232;2023-10-19T00:45:17;11.70;99.90
4461;DHT22;2243;48.812;9.232;2023-10-19T00:47:55;11.70;99.90
4461;DHT22;2243;48.812;9.232;2023-10-19T00:50:29;11.60;99.90
4461;DHT22;2243;48.812;9.232;2023-10-19T00:53:02;11.70;99.90
4461;DHT22;2243;48.812;9.232;2023-10-19T00:55:38;11.70;99.90
4461;DHT22;2243;48.812;9.232;2023-10-19T00:58:10;11.80;99.90
4461;DHT22;2243;48.812;9.232;2023-10-19T01:00:44;11.80;99.90
4461;DHT22;2243;48.812;9.232;2023-10-19T01:03:15;11.80;99.90
4461;DHT22;2243;48.812;9.232;2023-10-19T01:05:48;11.90;99.90
4461;DHT22;2243;48.812;9.232;2023-10-19T01:08:19;11.80;99.90
4461;DHT22;2243;48.812;9.232;2023-10-19T01:10:54;11.90;99.90
4461;DHT22;2243;48.812;9.232;2023-10-19T01:13:25;11.90;99.90
4461;DHT22;2243;48.812;9.232;2023-10-19T01:15:59;11.90;99.90
4461;DHT22;2243;48.812;9.232;2023-10-19T01:18:30;11.90;99.90
4461;DHT22;2243;48.812;9.232;2023-10-19T01:21:03;11.80;99.90
4461;DHT22;2243;48.812;9.232;2023-10-19T01:23:37;11.90;99.90
4461;DHT22;2243;48.812;9.232;2023-10-19T01:26:09;11.90;99.90
4461;DHT22;2243;48.812;9.232;2023-10-19T01:28:41;11.80;99.90
4461;DHT22;2243;48.812;9.232;2023-10-19T01:31:22;11.80;99.90
4461;DHT22;2243;48.812;9.232;2023-10-19T01:34:01;11.90;99.90
4461;DHT22;2243;48.812;9.232;2023-10-19T01:36:35;11.90;99.90
4461;DHT22;2243;48.812;9.232;2023-10-19T01:39:15;11.90;99.90
4461;DHT22;2243;48.812;9.232;2023-10-19T01:41:46;12.00;99.90
4461;DHT22;2243;48.812;9.232;2023-10-19T01:44:21;12.00;99.90
4461;DHT22;2243;48.812;9.232;2023-10-19T01:46:52;12.10;99.90
4461;DHT22;2243;48.812;9.232;2023-10-19T01:49:23;12.00;99.90
4461;DHT22;2243;48.812;9.232;2023-10-19T01:51:57;12.10;99.90
4461;DHT22;2243;48.812;9.232;2023-10-19T01:54:28;12.10;99.90
4461;DHT22;2243;48.812;9.232;2023-10-19T01:57:00;12.10;99.90
4461;DHT22;2243;48.812;9.232;2023-10-19T01:59:31;12.20;99.90
4461;DHT22;2243;48.812;9.232;2023-10-19T02:02:05;12.20;99.90
4461;DHT22;2243;48.812;9.232;2023-10-19T02:04:40;12.30;99.90
4461;DHT22;2243;48.812;9.232;2023-10-19T02:07:11;12.30;99.90
4461;DHT22;2243;48.812;9.232;2023-10-19T02:09:48;12.30;99.90
4461;DHT22;2243;48.812;9.232;2023-10-19T02:12:19;12.40;99.90
4461;DHT22;2243;48.812;9.232;2023-10-19T02:14:50;12.30;99.90
4461;DHT22;2243;48.812;9.232;2023-10-19T02:17:21;12.40;99.90
4461;DHT22;2243;48.812;9.232;2023-10-19T02:19:54;12.40;99.90
4461;DHT22;2243;48.812;9.232;2023-10-19T02:22:26;12.40;99.90
4461;DHT22;2243;48.812;9.232;2023-10-19T02:24:57;12.40;99.90
4461;DHT22;2243;48.812;9.232;2023-10-19T02:27:28;12.40;99.90
4461;DHT22;2243;48.812;9.232;2023-10-19T02:30:03;12.40;99.90
4461;DHT22;2243;48.812;9.232;2023-10-19T02:32:35;12.40;99.90
4461;DHT22;2243;48.812;9.232;2023-10-19T02:35:06;12.40;99.90
4461;DHT22;2243;48.812;9.232;2023-10-19T02:37:37;12.40;99.90
4461;DHT22;2243;48.812;9.232;2023-10-19T02:40:11;12.40;99.90
4461;DHT22;2243;48.812;9.232;2023-10-19T02:42:50;12.50;99.90
4461;DHT22;2243;48.812;9.232;2023-10-19T02:45:24;12.50;99.90
4461;DHT22;2243;48.812;9.232;2023-10-19T02:47:55;12.50;99.90
4461;DHT22;2243;48.812;9.232;2023-10-19T02:50:27;12.50;99.90
4461;DHT22;2243;48.812;9.232;2023-10-19T02:52:58;12.50;99.90
4461;DHT22;2243;48.812;9.232;2023-10-19T02:55:29;12.50;99.90
4461;DHT22;2243;48.812;9.232;2023-10-19T02:58:00;12.50;99.90
4461;DHT22;2243;48.812;9.232;2023-10-19T03:00:31;12.50;99.90
4461;DHT22;2243;48.812;9.232;2023-10-19T03:03:06;12.60;99.90
4461;DHT22;2243;48.812;9.232;2023-10-19T03:05:37;12.60;99.90
4461;DHT22;2243;48.812;9.232;2023-10-19T03:08:10;12.50;99.90
4461;DHT22;2243;48.812;9.232;2023-10-19T03:10:41;12.50;99.90
4461;DHT22;2243;48.812;9.232;2023-10-19T03:13:15;12.40;99.90
4461;DHT22;2243;48.812;9.232;2023-10-19T03:15:46;12.30;99.90
4461;DHT22;2243;48.812;9.232;2023-10-19T03:18:19;12.30;99.90
4461;DHT22;2243;48.812;9.232;2023-10-19T03:20:50;12.30;99.90
4461;DHT22;2243;48.812;9.232;2023-10-19T03:23:21;12.30;99.90
4461;DHT22;2243;48.812;9.232;2023-10-19T03:25:54;12.20;99.90
4461;DHT22;2243;48.812;9.232;2023-10-19T03:28:32;12.10;99.90
4461;DHT22;2243;48.812;9.232;2023-10-19T03:31:06;12.10;99.90
4461;DHT22;2243;48.812;9.232;2023-10-19T03:33:38;12.10;99.90
4461;DHT22;2243;48.812;9.232;2023-10-19T03:36:11;12.00;99.90
4461;DHT22;2243;48.812;9.232;2023-10-19T03:38:44;12.00;99.90
4461;DHT22;2243;48.812;9.232;2023-10-19T03:41:15;12.00;99.90
4461;DHT22;2243;48.812;9.232;2023-10-19T03:43:50;12.00;99.90
4461;DHT22;2243;48.812;9.232;2023-10-19T03:46:24;12.00;99.90
4461;DHT22;2243;48.812;9.232;2023-10-19T03:49:01;12.00;99.90
4461;DHT22;2243;48.812;9.232;2023-10-19T03:51:41;12.00;99.90
4461;DHT22;2243;48.812;9.232;2023-10-19T03:54:29;12.10;99.90
4461;DHT22;2243;48.812;9.232;2023-10-19T03:57:03;12.10;99.90
4461;DHT22;2243;48.812;9.232;2023-10-19T03:59:39;12.10;99.90
4461;DHT22;2243;48.812;9.232;2023-10-19T04:02:10;12.10;99.90
4461;DHT22;2243;48.812;9.232;2023-10-19T04:04:45;12.10;99.90
4461;DHT22;2243;48.812;9.232;2023-10-19T04:07:19;12.10;99.90
4461;DHT22;2243;48.812;9.232;2023-10-19T04:09:54;12.00;99.90
4461;DHT22;2243;48.812;9.232;2023-10-19T04:12:39;12.10;99.90
4461;DHT22;2243;48.812;9.232;2023-10-19T04:15:13;12.10;99.90
4461;DHT22;2243;48.812;9.232;2023-10-19T04:17:47;12.10;99.90
4461;DHT22;2243;48.812;9.232;2023-10-19T04:20:21;12.10;99.90
4461;DHT22;2243;48.812;9.232;2023-10-19T04:22:55;12.10;99.90
4461;DHT22;2243;48.812;9.232;2023-10-19T04:25:36;12.00;99.90
4461;DHT22;2243;48.812;9.232;2023-10-19T04:28:08;12.00;99.90
4461;DHT22;2243;48.812;9.232;2023-10-19T04:30:40;12.00;99.90
4461;DHT22;2243;48.812;9.232;2023-10-19T04:33:11;12.00;99.90
4461;DHT22;2243;48.812;9.232;2023-10-19T04:35:42;12.00;99.90
4461;DHT22;2243;48.812;9.232;2023-10-19T04:38:13;12.00;99.90
4461;DHT22;2243;48.812;9.232;2023-10-19T04:40:44;12.00;99.90
4461;DHT22;2243;48.812;9.232;2023-10-19T04:43:15;12.00;99.90
4461;DHT22;2243;48.812;9.232;2023-10-19T04:45:49;12.00;99.90
4461;DHT22;2243;48.812;9.232;2023-10-19T04:48:20;12.00;99.90
4461;DHT22;2243;48.812;9.232;2023-10-19T04:50:51;12.00;99.90
4461;DHT22;2243;48.812;9.232;2023-10-19T04:53:22;12.00;99.90
4461;DHT22;2243;48.812;9.232;2023-10-19T04:55:53;12.00;99.90
4461;DHT22;2243;48.812;9.232;2023-10-19T04:58:24;12.00;99.90
4461;DHT22;2243;48.812;9.232;2023-10-19T05:00:56;12.00;99.90
4461;DHT22;2243;48.812;9.232;2023-10-19T05:03:32;11.90;99.90
4461;DHT22;2243;48.812;9.232;2023-10-19T05:06:04;12.10;99.90
4461;DHT22;2243;48.812;9.232;2023-10-19T05:08:37;12.00;99.90
4461;DHT22;2243;48.812;9.232;2023-10-19T05:11:08;12.00;99.90
4461;DHT22;2243;48.812;9.232;2023-10-19T05:13:39;11.90;99.90
4461;DHT22;2243;48.812;9.232;2023-10-19T05:16:10;12.00;99.90
4461;DHT22;2243;48.812;9.232;2023-10-19T05:18:41;12.00;99.90
4461;DHT22;2243;48.812;9.232;2023-10-19T05:21:13;11.90;99.90
4461;DHT22;2243;48.812;9.232;2023-10-19T05:23:45;11.90;99.90
4461;DHT22;2243;48.812;9.232;2023-10-19T05:26:16;12.00;99.90
4461;DHT22;2243;48.812;9.232;2023-10-19T05:28:47;11.90;99.90
4461;DHT22;2243;48.812;9.232;2023-10-19T05:31:18;11.90;99.90
4461;DHT22;2243;48.812;9.232;2023-10-19T05:33:49;11.80;99.90
4461;DHT22;2243;48.812;9.232;2023-10-19T05:36:20;11.90;99.90
4461;DHT22;2243;48.812;9.232;2023-10-19T05:38:52;11.90;99.90
4461;DHT22;2243;48.812;9.232;2023-10-19T05:41:23;11.90;99.90
4461;DHT22;2243;48.812;9.232;2023-10-19T05:43:53;11.90;99.90
4461;DHT22;2243;48.812;9.232;2023-10-19T05:46:25;11.90;99.90
4461;DHT22;2243;48.812;9.232;2023-10-19T05:48:56;11.90;99.90
4461;DHT22;2243;48.812;9.232;2023-10-19T05:51:28;11.80;99.90
4461;DHT22;2243;48.812;9.232;2023-10-19T05:53:59;11.80;99.90
4461;DHT22;2243;48.812;9.232;2023-10-19T05:56:33;11.80;99.90
4461;DHT22;2243;48.812;9.232;2023-10-19T05:59:05;11.80;99.90
4461;DHT22;2243;48.812;9.232;2023-10-19T06:01:38;11.80;99.90
4461;DHT22;2243;48.812;9.232;2023-10-19T06:04:09;11.80;99.90
4461;DHT22;2243;48.812;9.232;2023-10-19T06:06:41;11.70;99.90
4461;DHT22;2243;48.812;9.232;2023-10-19T06:09:13;11.70;99.90
4461;DHT22;2243;48.812;9.232;2023-10-19T06:11:46;11.70;99.90
4461;DHT22;2243;48.812;9.232;2023-10-19T06:14:17;11.80;99.90
4461;DHT22;2243;48.812;9.232;2023-10-19T06:16:48;11.70;99.90
4461;DHT22;2243;48.812;9.232;2023-10-19T06:19:19;11.70;99.90
4461;DHT22;2243;48.812;9.232;2023-10-19T06:21:51;11.80;99.90
4461;DHT22;2243;48.812;9.232;2023-10-19T06:24:22;11.80;99.90
4461;DHT22;2243;48.812;9.232;2023-10-19T06:26:53;11.80;99.90
4461;DHT22;2243;48.812;9.232;2023-10-19T06:29:24;11.90;99.90
4461;DHT22;2243;48.812;9.232;2023-10-19T06:31:57;11.90;99.90
4461;DHT22;2243;48.812;9.232;2023-10-19T06:34:29;12.00;99.90
4461;DHT22;2243;48.812;9.232;2023-10-19T06:37:01;11.90;99.90
4461;DHT22;2243;48.812;9.232;2023-10-19T06:39:34;12.00;99.90
4461;DHT22;2243;48.812;9.232;2023-10-19T06:42:09;12.00;99.90
4461;DHT22;2243;48.812;9.232;2023-10-19T06:44:44;12.00;99.90
4461;DHT22;2243;48.812;9.232;2023-10-19T06:47:16;12.00;99.90
4461;DHT22;2243;48.812;9.232;2023-10-19T06:49:47;12.10;99.90
4461;DHT22;2243;48.812;9.232;2023-10-19T06:52:19;12.00;99.90
4461;DHT22;2243;48.812;9.232;2023-10-19T06:54:50;12.10;99.90
4461;DHT22;2243;48.812;9.232;2023-10-19T06:57:21;12.10;99.90
4461;DHT22;2243;48.812;9.232;2023-10-19T06:59:52;12.20;99.90
4461;DHT22;2243;48.812;9.232;2023-10-19T07:02:23;12.20;99.90
4461;DHT22;2243;48.812;9.232;2023-10-19T07:04:54;12.30;99.90
4461;DHT22;2243;48.812;9.232;2023-10-19T07:07:25;12.30;99.90
4461;DHT22;2243;48.812;9.232;2023-10-19T07:09:56;12.30;99.90
4461;DHT22;2243;48.812;9.232;2023-10-19T07:12:28;12.30;99.90
4461;DHT22;2243;48.812;9.232;2023-10-19T07:14:59;12.40;99.90
4461;DHT22;2243;48.812;9.232;2023-10-19T07:17:31;12.40;99.90
4461;DHT22;2243;48.812;9.232;2023-10-19T07:20:05;12.50;99.90
4461;DHT22;2243;48.812;9.232;2023-10-19T07:22:37;12.40;99.90
4461;DHT22;2243;48.812;9.232;2023-10-19T07:25:12;12.40;99.90
4461;DHT22;2243;48.812;9.232;2023-10-19T07:27:44;12.40;99.90
4461;DHT22;2243;48.812;9.232;2023-10-19T07:30:15;12.50;99.90
4461;DHT22;2243;48.812;9.232;2023-10-19T07:32:56;12.60;99.90
4461;DHT22;2243;48.812;9.232;2023-10-19T07:35:34;12.60;99.90
4461;DHT22;2243;48.812;9.232;2023-10-19T07:38:09;12.60;99.90
4461;DHT22;2243;48.812;9.232;2023-10-19T07:40:41;12.60;99.90
4461;DHT22;2243;48.812;9.232;2023-10-19T07:43:14;12.60;99.90
4461;DHT22;2243;48.812;9.232;2023-10-19T07:45:45;12.70;99.90
4461;DHT22;2243;48.812;9.232;2023-10-19T07:48:18;12.70;99.90
4461;DHT22;2243;48.812;9.232;2023-10-19T07:50:49;12.80;99.90
4461;DHT22;2243;48.812;9.232;2023-10-19T07:53:20;12.80;99.90
4461;DHT22;2243;48.812;9.232;2023-10-19T07:55:52;12.90;99.90
4461;DHT22;2243;48.812;9.232;2023-10-19T07:58:23;13.00;99.90
4461;DHT22;2243;48.812;9.232;2023-10-19T08:00:55;13.00;99.90
4461;DHT22;2243;48.812;9.232;2023-10-19T08:03:27;13.10;99.90
4461;DHT22;2243;48.812;9.232;2023-10-19T08:05:58;13.20;99.90
4461;DHT22;2243;48.812;9.232;2023-10-19T08:08:29;13.30;99.90
4461;DHT22;2243;48.812;9.232;2023-10-19T08:11:04;13.30;99.90
4461;DHT22;2243;48.812;9.232;2023-10-19T08:13:37;13.40;99.90
4461;DHT22;2243;48.812;9.232;2023-10-19T08:16:08;13.50;99.90
4461;DHT22;2243;48.812;9.232;2023-10-19T08:18:40;13.60;99.90
4461;DHT22;2243;48.812;9.232;2023-10-19T08:21:11;13.50;99.90
4461;DHT22;2243;48.812;9.232;2023-10-19T08:23:43;13.60;99.90
4461;DHT22;2243;48.812;9.232;2023-10-19T08:26:15;13.60;99.90
4461;DHT22;2243;48.812;9.232;2023-10-19T08:28:47;13.70;99.90
4461;DHT22;2243;48.812;9.232;2023-10-19T08:31:18;13.80;99.90
4461;DHT22;2243;48.812;9.232;2023-10-19T08:33:49;13.90;99.90
4461;DHT22;2243;48.812;9.232;2023-10-19T08:36:20;14.00;99.90
4461;DHT22;2243;48.812;9.232;2023-10-19T08:38:51;14.20;99.90
4461;DHT22;2243;48.812;9.232;2023-10-19T08:41:24;14.20;99.90
4461;DHT22;2243;48.812;9.232;2023-10-19T08:43:55;14.40;99.90
4461;DHT22;2243;48.812;9.232;2023-10-19T08:46:27;14.50;99.90
4461;DHT22;2243;48.812;9.232;2023-10-19T08:48:59;14.60;99.90
4461;DHT22;2243;48.812;9.232;2023-10-19T08:51:30;14.70;99.90
4461;DHT22;2243;48.812;9.232;2023-10-19T08:54:02;14.70;99.90
4461;DHT22;2243;48.812;9.232;2023-10-19T08:56:36;14.80;99.90
4461;DHT22;2243;48.812;9.232;2023-10-19T08:59:08;14.90;99.90
4461;DHT22;2243;48.812;9.232;2023-10-19T09:01:43;14.90;99.90
4461;DHT22;2243;48.812;9.232;2023-10-19T09:04:14;15.00;99.90
4461;DHT22;2243;48.812;9.232;2023-10-19T09:06:47;15.10;99.90
4461;DHT22;2243;48.812;9.232;2023-10-19T09:09:20;15.20;99.90
4461;DHT22;2243;48.812;9.232;2023-10-19T09:11:52;15.20;99.90
4461;DHT22;2243;48.812;9.232;2023-10-19T09:14:31;15.40;99.90
4461;DHT22;2243;48.812;9.232;2023-10-19T09:17:04;15.50;99.90
4461;DHT22;2243;48.812;9.232;2023-10-19T09:19:40;15.50;99.90
4461;DHT22;2243;48.812;9.232;2023-10-19T09:22:13;15.80;99.90
4461;DHT22;2243;48.812;9.232;2023-10-19T09:24:53;15.90;99.90
4461;DHT22;2243;48.812;9.232;2023-10-19T09:27:24;16.00;99.90
4461;DHT22;2243;48.812;9.232;2023-10-19T09:29:56;16.10;99.90
4461;DHT22;2243;48.812;9.232;2023-10-19T09:32:29;16.30;99.90
4461;DHT22;2243;48.812;9.232;2023-10-19T09:35:01;16.50;99.90
4461;DHT22;2243;48.812;9.232;2023-10-19T09:37:34;16.50;99.90
4461;DHT22;2243;48.812;9.232;2023-10-19T09:40:06;16.60;99.90
4461;DHT22;2243;48.812;9.232;2023-10-19T09:42:43;16.60;99.90
4461;DHT22;2243;48.812;9.232;2023-10-19T09:45:19;16.60;99.90
4461;DHT22;2243;48.812;9.232;2023-10-19T09:47:51;16.70;99.90
4461;DHT22;2243;48.812;9.232;2023-10-19T09:50:25;16.80;99.90
4461;DHT22;2243;48.812;9.232;2023-10-19T09:52:57;16.90;99.90
4461;DHT22;2243;48.812;9.232;2023-10-19T09:55:33;16.90;99.90
4461;DHT22;2243;48.812;9.232;2023-10-19T09:58:12;17.00;99.90
4461;DHT22;2243;48.812;9.232;2023-10-19T10:00:49;17.00;99.90
4461;DHT22;2243;48.812;9.232;2023-10-19T10:03:44;17.10;99.90
4461;DHT22;2243;48.812;9.232;2023-10-19T10:09:26;17.10;99.90
4461;DHT22;2243;48.812;9.232;2023-10-19T10:12:24;17.10;99.90
4461;DHT22;2243;48.812;9.232;2023-10-19T10:15:02;17.10;99.90
4461;DHT22;2243;48.812;9.232;2023-10-19T10:17:39;17.00;99.90
4461;DHT22;2243;48.812;9.232;2023-10-19T10:23:21;17.10;99.90
4461;DHT22;2243;48.812;9.232;2023-10-19T10:25:59;17.10;99.90
4461;DHT22;2243;48.812;9.232;2023-10-19T10:28:30;17.10;99.90
4461;DHT22;2243;48.812;9.232;2023-10-19T10:31:08;17.00;99.90
4461;DHT22;2243;48.812;9.232;2023-10-19T10:33:49;17.10;99.90
4461;DHT22;2243;48.812;9.232;2023-10-19T10:36:22;17.10;99.90
4461;DHT22;2243;48.812;9.232;2023-10-19T10:39:01;17.10;99.90
4461;DHT22;2243;48.812;9.232;2023-10-19T10:41:35;17.10;99.90
4461;DHT22;2243;48.812;9.232;2023-10-19T10:44:06;17.00;99.90
4461;DHT22;2243;48.812;9.232;2023-10-19T10:46:40;17.00;99.90
4461;DHT22;2243;48.812;9.232;2023-10-19T10:49:14;16.90;99.90
4461;DHT22;2243;48.812;9.232;2023-10-19T10:51:46;16.90;99.90
4461;DHT22;2243;48.812;9.232;2023-10-19T10:54:21;17.00;99.90
4461;DHT22;2243;48.812;9.232;2023-10-19T10:56:52;17.00;99.90
4461;DHT22;2243;48.812;9.232;2023-10-19T10:59:23;17.10;99.90
4461;DHT22;2243;48.812;9.232;2023-10-19T11:01:55;17.00;99.90
4461;DHT22;2243;48.812;9.232;2023-10-19T11:04:26;17.00;99.90
4461;DHT22;2243;48.812;9.232;2023-10-19T11:06:57;16.90;99.90
4461;DHT22;2243;48.812;9.232;2023-10-19T11:09:43;16.90;99.90
4461;DHT22;2243;48.812;9.232;2023-10-19T11:12:15;16.80;99.90
4461;DHT22;2243;48.812;9.232;2023-10-19T11:14:56;16.80;99.90
4461;DHT22;2243;48.812;9.232;2023-10-19T11:17:31;16.80;99.90
4461;DHT22;2243;48.812;9.232;2023-10-19T11:20:03;16.80;99.90
4461;DHT22;2243;48.812;9.232;2023-10-19T11:22:48;16.80;99.90
4461;DHT22;2243;48.812;9.232;2023-10-19T11:25:25;16.80;99.90
4461;DHT22;2243;48.812;9.232;2023-10-19T11:28:01;16.80;99.90
4461;DHT22;2243;48.812;9.232;2023-10-19T11:30:32;16.70;99.90
4461;DHT22;2243;48.812;9.232;2023-10-19T11:33:03;16.50;99.90
4461;DHT22;2243;48.812;9.232;2023-10-19T11:35:34;16.50;99.90
4461;DHT22;2243;48.812;9.232;2023-10-19T11:38:05;16.50;99.90
4461;DHT22;2243;48.812;9.232;2023-10-19T11:40:37;16.50;99.90
4461;DHT22;2243;48.812;9.232;2023-10-19T11:43:08;16.50;99.90
4461;DHT22;2243;48.812;9.232;2023-10-19T11:45:39;16.50;99.90
4461;DHT22;2243;48.812;9.232;2023-10-19T11:48:13;16.50;99.90
4461;DHT22;2243;48.812;9.232;2023-10-19T11:50:45;16.50;99.90
4461;DHT22;2243;48.812;9.232;2023-10-19T11:53:16;16.50;99.90
4461;DHT22;2243;48.812;9.232;2023-10-19T11:55:47;16.50;99.90
4461;DHT22;2243;48.812;9.232;2023-10-19T11:58:19;16.50;99.90
4461;DHT22;2243;48.812;9.232;2023-10-19T12:00:51;16.40;99.90
4461;DHT22;2243;48.812;9.232;2023-10-19T12:03:22;16.40;99.90
4461;DHT22;2243;48.812;9.232;2023-10-19T12:05:53;16.40;99.90
4461;DHT22;2243;48.812;9.232;2023-10-19T12:08:26;16.40;99.90
4461;DHT22;2243;48.812;9.232;2023-10-19T12:10:58;16.40;99.90
4461;DHT22;2243;48.812;9.232;2023-10-19T12:13:29;16.40;99.90
4461;DHT22;2243;48.812;9.232;2023-10-19T12:16:01;16.40;99.90
4461;DHT22;2243;48.812;9.232;2023-10-19T12:18:35;16.40;99.90
4461;DHT22;2243;48.812;9.232;2023-10-19T12:21:06;16.40;99.90
4461;DHT22;2243;48.812;9.232;2023-10-19T12:23:43;16.30;99.90
4461;DHT22;2243;48.812;9.232;2023-10-19T12:26:14;16.30;99.90
4461;DHT22;2243;48.812;9.232;2023-10-19T12:28:45;16.30;99.90
4461;DHT22;2243;48.812;9.232;2023-10-19T12:31:20;16.40;99.90
4461;DHT22;2243;48.812;9.232;2023-10-19T12:33:53;16.30;99.90
4461;DHT22;2243;48.812;9.232;2023-10-19T12:36:24;16.30;99.90
4461;DHT22;2243;48.812;9.232;2023-10-19T12:39:05;16.30;99.90
4461;DHT22;2243;48.812;9.232;2023-10-19T12:41:38;16.40;99.90
4461;DHT22;2243;48.812;9.232;2023-10-19T12:44:09;16.40;99.90
4461;DHT22;2243;48.812;9.232;2023-10-19T12:46:43;16.40;99.90
4461;DHT22;2243;48.812;9.232;2023-10-19T12:49:14;16.40;99.90
4461;DHT22;2243;48.812;9.232;2023-10-19T12:51:47;16.40;99.90
4461;DHT22;2243;48.812;9.232;2023-10-19T12:54:18;16.30;99.90
4461;DHT22;2243;48.812;9.232;2023-10-19T12:56:49;16.30;99.90
4461;DHT22;2243;48.812;9.232;2023-10-19T12:59:23;16.30;99.90
4461;DHT22;2243;48.812;9.232;2023-10-19T13:01:54;16.40;99.90
4461;DHT22;2243;48.812;9.232;2023-10-19T13:04:29;16.40;99.90
4461;DHT22;2243;48.812;9.232;2023-10-19T13:07:02;16.40;99.90
4461;DHT22;2243;48.812;9.232;2023-10-19T13:09:36;16.40;99.90
4461;DHT22;2243;48.812;9.232;2023-10-19T13:12:07;16.50;99.90
4461;DHT22;2243;48.812;9.232;2023-10-19T13:14:38;16.50;99.90
4461;DHT22;2243;48.812;9.232;2023-10-19T13:17:10;16.50;99.90
4461;DHT22;2243;48.812;9.232;2023-10-19T13:19:41;16.40;99.90
4461;DHT22;2243;48.812;9.232;2023-10-19T13:22:12;16.30;99.90
4461;DHT22;2243;48.812;9.232;2023-10-19T13:24:46;16.30;99.90
4461;DHT22;2243;48.812;9.232;2023-10-19T13:27:17;16.20;99.90
4461;DHT22;2243;48.812;9.232;2023-10-19T13:29:48;16.20;99.90
4461;DHT22;2243;48.812;9.232;2023-10-19T13:32:20;16.20;99.90
4461;DHT22;2243;48.812;9.232;2023-10-19T13:34:51;16.10;99.90
4461;DHT22;2243;48.812;9.232;2023-10-19T13:37:22;16.10;99.90
4461;DHT22;2243;48.812;9.232;2023-10-19T13:39:53;16.10;99.90
4461;DHT22;2243;48.812;9.232;2023-10-19T13:42:25;16.10;99.90
4461;DHT22;2243;48.812;9.232;2023-10-19T13:44:57;16.00;99.90
4461;DHT22;2243;48.812;9.232;2023-10-19T13:47:28;16.00;99.90
4461;DHT22;2243;48.812;9.232;2023-10-19T13:49:59;16.00;99.90
4461;DHT22;2243;48.812;9.232;2023-10-19T13:52:31;16.00;99.90
4461;DHT22;2243;48.812;9.232;2023-10-19T13:55:02;16.00;99.90
4461;DHT22;2243;48.812;9.232;2023-10-19T13:57:34;16.00;99.90
4461;DHT22;2243;48.812;9.232;2023-10-19T14:00:06;16.10;99.90
4461;DHT22;2243;48.812;9.232;2023-10-19T14:02:38;16.00;99.90
4461;DHT22;2243;48.812;9.232;2023-10-19T14:05:09;16.00;99.90
4461;DHT22;2243;48.812;9.232;2023-10-19T14:07:42;16.00;99.90
4461;DHT22;2243;48.812;9.232;2023-10-19T14:10:14;16.10;99.90
4461;DHT22;2243;48.812;9.232;2023-10-19T14:12:46;16.10;99.90
4461;DHT22;2243;48.812;9.232;2023-10-19T14:15:19;16.10;99.90
4461;DHT22;2243;48.812;9.232;2023-10-19T14:17:50;16.10;99.90
4461;DHT22;2243;48.812;9.232;2023-10-19T14:20:22;16.10;99.90
4461;DHT22;2243;48.812;9.232;2023-10-19T14:22:54;16.10;99.90
4461;DHT22;2243;48.812;9.232;2023-10-19T14:25:26;16.10;99.90
4461;DHT22;2243;48.812;9.232;2023-10-19T14:27:57;16.10;99.90
4461;DHT22;2243;48.812;9.232;2023-10-19T14:30:30;16.10;99.90
4461;DHT22;2243;48.812;9.232;2023-10-19T14:33:01;16.10;99.90
4461;DHT22;2243;48.812;9.232;2023-10-19T14:35:33;16.00;99.90
4461;DHT22;2243;48.812;9.232;2023-10-19T14:38:06;16.00;99.90
4461;DHT22;2243;48.812;9.232;2023-10-19T14:40:40;16.00;99.90
4461;DHT22;2243;48.812;9.232;2023-10-19T14:43:16;16.00;99.90
4461;DHT22;2243;48.812;9.232;2023-10-19T14:45:47;16.00;99.90
4461;DHT22;2243;48.812;9.232;2023-10-19T14:48:18;16.00;99.90
4461;DHT22;2243;48.812;9.232;2023-10-19T14:50:50;15.90;99.90
4461;DHT22;2243;48.812;9.232;2023-10-19T14:53:25;16.00;99.90
4461;DHT22;2243;48.812;9.232;2023-10-19T14:55:56;16.00;99.90
4461;DHT22;2243;48.812;9.232;2023-10-19T14:58:28;16.00;99.90
4461;DHT22;2243;48.812;9.232;2023-10-19T15:01:00;16.00;99.90
4461;DHT22;2243;48.812;9.232;2023-10-19T15:03:31;15.90;99.90
4461;DHT22;2243;48.812;9.232;2023-10-19T15:06:04;15.90;99.90
4461;DHT22;2243;48.812;9.232;2023-10-19T15:08:37;15.90;99.90
4461;DHT22;2243;48.812;9.232;2023-10-19T15:11:08;15.90;99.90
4461;DHT22;2243;48.812;9.232;2023-10-19T15:13:39;16.00;99.90
4461;DHT22;2243;48.812;9.232;2023-10-19T15:16:11;15.90;99.90
4461;DHT22;2243;48.812;9.232;2023-10-19T15:18:43;15.90;99.90
4461;DHT22;2243;48.812;9.232;2023-10-19T15:21:14;15.90;99.90
4461;DHT22;2243;48.812;9.232;2023-10-19T15:23:45;16.00;99.90
4461;DHT22;2243;48.812;9.232;2023-10-19T15:26:17;16.00;99.90
4461;DHT22;2243;48.812;9.232;2023-10-19T15:28:49;16.00;99.90
4461;DHT22;2243;48.812;9.232;2023-10-19T15:31:20;16.00;99.90
4461;DHT22;2243;48.812;9.232;2023-10-19T15:33:52;16.10;99.90
4461;DHT22;2243;48.812;9.232;2023-10-19T15:36:23;16.10;99.90
4461;DHT22;2243;48.812;9.232;2023-10-19T15:38:54;16.20;99.90
4461;DHT22;2243;48.812;9.232;2023-10-19T15:41:25;16.20;99.90
4461;DHT22;2243;48.812;9.232;2023-10-19T15:43:57;16.20;99.90
4461;DHT22;2243;48.812;9.232;2023-10-19T15:46:29;16.10;99.90
4461;DHT22;2243;48.812;9.232;2023-10-19T15:49:02;16.10;99.90
4461;DHT22;2243;48.812;9.232;2023-10-19T15:51:33;16.10;99.90
4461;DHT22;2243;48.812;9.232;2023-10-19T15:54:04;16.00;99.90
4461;DHT22;2243;48.812;9.232;2023-10-19T15:56:35;16.00;99.90
4461;DHT22;2243;48.812;9.232;2023-10-19T15:59:06;15.90;99.90
4461;DHT22;2243;48.812;9.232;2023-10-19T16:01:37;15.90;99.90
4461;DHT22;2243;48.812;9.232;2023-10-19T16:04:09;15.90;99.90
4461;DHT22;2243;48.812;9.232;2023-10-19T16:06:40;15.90;99.90
4461;DHT22;2243;48.812;9.232;2023-10-19T16:09:11;15.90;99.90
4461;DHT22;2243;48.812;9.232;2023-10-19T16:11:42;15.90;99.90
4461;DHT22;2243;48.812;9.232;2023-10-19T16:14:13;15.90;99.90
4461;DHT22;2243;48.812;9.232;2023-10-19T16:16:46;15.90;99.90
4461;DHT22;2243;48.812;9.232;2023-10-19T16:19:17;15.90;99.90
4461;DHT22;2243;48.812;9.232;2023-10-19T16:21:49;15.80;99.90
4461;DHT22;2243;48.812;9.232;2023-10-19T16:24:20;15.80;99.90
4461;DHT22;2243;48.812;9.232;2023-10-19T16:26:52;15.80;99.90
4461;DHT22;2243;48.812;9.232;2023-10-19T16:29:23;15.80;99.90
4461;DHT22;2243;48.812;9.232;2023-10-19T16:31:56;15.80;99.90
4461;DHT22;2243;48.812;9.232;2023-10-19T16:34:30;15.80;99.90
4461;DHT22;2243;48.812;9.232;2023-10-19T16:37:01;15.80;99.90
4461;DHT22;2243;48.812;9.232;2023-10-19T16:39:34;15.80;99.90
4461;DHT22;2243;48.812;9.232;2023-10-19T16:42:05;15.80;99.90
4461;DHT22;2243;48.812;9.232;2023-10-19T16:44:36;15.80;99.90